• Join FlightAware (Why Join?)
  • Login
  • US Flag 
03:20AM EST


 

Airport Tracker/Info


-or-


 

Live Flight TrackerFlight Track Log ✈ SWA2166 ✈ 12-Apr-2013 ✈ KBHM - KHOU

Flight Track Log - Related Links

Times and Time Zones

All times are in EDT time to prevent confusion due to time zone crossing. See the SWA2166 flight status page for this flight to view local times or setup timezone preferences in your user account.

Time Position Orientation Groundspeed Altitude Reporting Facility
EDT Latitude Longitude Course Direction KTS MPH feet Rate Location/Type
07:07PM 33.5250 -86.8197 234° Southwest 193 222 3,500  Level Atlanta Center
07:10PM 33.4253 -86.9733 232° Southwest 286 329 11,500 3,660 Climbing Atlanta Center
07:12PM 33.3206 -87.1561 236° Southwest 328 377 19,400 3,720 Climbing Atlanta Center
07:13PM 33.2825 -87.2617 247° West 340 391 22,700 2,820 Climbing Atlanta Center
07:15PM 33.2022 -87.4797 246° West 357 411 27,700 2,460 Climbing Memphis Center
07:16PM 33.1631 -87.6003 249° West 368 423 29,900 2,520 Climbing Memphis Center
07:17PM 33.1197 -87.7131 245° Southwest 381 438 32,800 1,980 Climbing Memphis Center
07:18PM 33.0783 -87.8258 246° West 381 438 34,000 600 Climbing Memphis Center
07:19PM 33.0367 -87.9361 246° West 376 433 34,000  Level Memphis Center
07:20PM 32.9989 -88.0461 248° West 371 427 34,000 900 Level Memphis Center
07:21PM 32.9675 -88.1436 249° West 366 421 35,800 1,560 Climbing Memphis Center
07:22PM 32.9275 -88.2561 247° West 361 415 37,200 1,200 Climbing Memphis Center
07:23PM 32.8856 -88.3658 246° West 361 415 38,300 960 Climbing Memphis Center
07:24PM 32.8433 -88.4781 246° West 366 421 39,200 840 Climbing Memphis Center
07:25PM 32.8014 -88.5900 246° West 371 427 40,000 360 Climbing Memphis Center
07:26PM 32.7611 -88.6997 246° West 371 427 40,000  Level Memphis Center
07:27PM 32.7186 -88.8092 245° Southwest 371 427 40,000  Level Memphis Center
07:28PM 32.6781 -88.9208 247° West 366 421 40,000  Level Memphis Center
07:29PM 32.6356 -89.0325 246° West 366 421 40,000  Level Memphis Center
07:30PM 32.5928 -89.1417 245° Southwest 366 421 40,000  Level Memphis Center
07:31PM 32.5500 -89.2556 246° West 366 421 40,000  Level Memphis Center
07:32PM 32.5072 -89.3644 245° Southwest 366 421 40,000  Level Memphis Center
07:33PM 32.4642 -89.4783 246° West 371 427 40,000  Level Memphis Center
07:34PM 32.4211 -89.5894 245° Southwest 376 433 40,000  Level Memphis Center
07:35PM 32.3778 -89.7031 246° West 381 438 40,000  Level Memphis Center
07:36PM 32.3347 -89.8139 245° Southwest 381 438 40,000  Level Memphis Center
07:37PM 32.2933 -89.9247 246° West 381 438 40,000  Level Memphis Center
07:38PM 32.2497 -90.0356 245° Southwest 381 438 40,000  Level Memphis Center
07:39PM 32.2061 -90.1461 245° Southwest 381 438 40,000  Level Memphis Center
07:40PM 32.1625 -90.2567 245° Southwest 381 438 40,000  Level Memphis Center
07:42PM 32.0594 -90.5208 245° Southwest 376 433 40,000  Level Houston Center
07:43PM 32.0064 -90.6542 245° Southwest 376 433 40,000  Level Houston Center
07:44PM 31.9631 -90.7661 245° Southwest 378 435 40,000  Level Houston Center
07:45PM 31.9175 -90.8811 245° Southwest 376 433 40,000  Level Houston Center
07:46PM 31.8719 -90.9944 245° Southwest 384 442 40,000  Level Houston Center
07:47PM 31.8267 -91.1050 244° Southwest 377 434 40,000  Level Houston Center
07:48PM 31.7819 -91.2172 245° Southwest 380 437 40,000  Level Houston Center
07:49PM 31.7378 -91.3283 245° Southwest 376 433 40,000  Level Houston Center
07:50PM 31.6831 -91.4617 244° Southwest 380 437 40,000  Level Houston Center
07:51PM 31.6381 -91.5722 244° Southwest 376 433 40,000  Level Houston Center
07:52PM 31.5936 -91.6842 245° Southwest 379 436 40,000  Level Houston Center
07:53PM 31.5472 -91.7956 244° Southwest 381 438 40,000  Level Houston Center
07:54PM 31.5022 -91.9078 245° Southwest 381 438 40,000  Level Houston Center
07:56PM 31.4564 -92.0183 244° Southwest 379 436 40,000  Level Houston Center
07:57PM 31.4044 -92.1406 244° Southwest 380 437 40,000  Level Houston Center
07:58PM 31.3586 -92.2531 245° Southwest 384 442 40,000  Level Houston Center
07:59PM 31.3128 -92.3644 244° Southwest 383 441 40,000  Level Houston Center
08:00PM 31.2636 -92.4761 243° Southwest 386 444 40,000  Level Houston Center
08:01PM 31.2136 -92.6122 247° West 383 441 40,000  Level Houston Center
08:02PM 31.1736 -92.7258 248° West 379 436 40,000  Level Houston Center
08:03PM 31.1325 -92.8311 245° Southwest 364 419 40,000  Level Houston Center
08:04PM 31.0936 -92.9394 247° West 363 418 40,000  Level Houston Center
08:05PM 31.0544 -93.0475 247° West 363 418 40,000  Level Houston Center
08:06PM 31.0233 -93.1572 252° West 364 419 40,000  Level Houston Center
08:07PM 31.0350 -93.3008 275° West 375 432 40,000  Level Houston Center
08:08PM 31.0425 -93.4214 274° West 384 442 40,000  Level Houston Center
08:09PM 30.9950 -93.5228 241° Southwest 363 418 40,000  Level Houston Center
08:10PM 30.9444 -93.6253 240° Southwest 366 421 40,000  Level Houston Center
08:11PM 30.8911 -93.7339 240° Southwest 385 443 40,000 -300 Level Houston Center
08:12PM 30.8383 -93.8400 240° Southwest 382 440 39,500 -1,500 Descending Houston Center
08:13PM 30.7786 -93.9572 239° Southwest 357 411 36,900 -2,580 Descending Houston Center
08:14PM 30.7294 -94.0558 240° Southwest 354 407 34,300 -3,000 Descending Houston Center
08:15PM 30.6797 -94.1536 239° Southwest 354 407 30,800 -3,540 Descending Houston Center
08:16PM 30.6164 -94.2778 239° Southwest 364 419 26,700 -3,000 Descending Houston Center
08:17PM 30.5769 -94.3556 240° Southwest 366 421 24,700 -2,520 Descending Houston Center
08:18PM 30.5514 -94.4078 240° Southwest 361 415 23,400 -3,240 Descending Houston Center
08:18PM 30.5194 -94.4717 240° Southwest 350 403 21,400 -3,000 Descending Houston Center
08:18PM 30.5056 -94.4989 239° Southwest 348 400 20,700 -2,040 Descending Houston Center
08:19PM 30.4658 -94.5650 235° Southwest 349 402 19,300 -2,340 Descending Houston Center
08:20PM 30.4400 -94.6019 231° Southwest 343 395 18,100 -2,220 Descending Houston Center
08:20PM 30.4128 -94.6456 234° Southwest 344 396 17,100 -1,860 Descending Houston Center
08:21PM 30.3833 -94.6892 232° Southwest 328 377 16,200 -1,980 Descending Houston Center
08:21PM 30.3597 -94.7292 236° Southwest 330 380 15,100 -2,460 Descending Houston Center
08:22PM 30.3228 -94.7817 231° Southwest 322 371 13,500 -2,040 Descending Houston Center
08:22PM 30.3047 -94.8114 235° Southwest 325 374 13,000 -1,320 Descending Houston Center
08:23PM 30.2719 -94.8631 234° Southwest 330 380 12,300 -1,680 Descending Houston Center
08:23PM 30.2392 -94.9142 233° Southwest 330 380 11,300 -1,620 Descending Houston Center
08:24PM 30.2169 -94.9475 232° Southwest 323 372 10,700 -1,260 Descending Houston Center
08:24PM 30.1861 -94.9967 234° Southwest 324 373 10,000 -720 Descending Houston Center
08:25PM 30.1639 -95.0314 233° Southwest 321 369 10,000  Level Houston Center
08:25PM 30.1306 -95.0744 228° Southwest 317 365 10,000  Level Houston Center
08:26PM 30.0897 -95.0914 200° South 324 373 10,000  Level Houston Center
08:26PM 30.0458 -95.1094 200° South 321 369 10,000 -540 Level Houston Center
08:27PM 30.0108 -95.1253 201° Southwest 280 322 9,500 -1,500 Descending Houston Center
08:27PM 29.9719 -95.1419 200° South 290 334 8,500 -1,500 Descending Houston Center
08:28PM 29.9339 -95.1564 198° South 287 330 8,000 -540 Descending Houston Center
08:29PM 29.8989 -95.1728 202° Southwest 282 325 8,000  Level Houston Center
08:29PM 29.8653 -95.1867 200° South 249 287 8,000 -600 Level Houston Center
08:30PM 29.8236 -95.2053 201° Southwest 237 273 7,400 -1,080 Descending Houston Center
08:30PM 29.8008 -95.2161 202° Southwest 232 267 6,900 -1,260 Descending Houston Center
08:31PM 29.7611 -95.2311 198° South 237 273 6,100 -900 Descending Houston Center
08:31PM 29.7353 -95.2336 185° South 243 280 6,000 -120 Descending Houston Center
08:32PM 29.6964 -95.2347 181° South 235 270 6,000  Level Houston Center
08:33PM 29.6383 -95.2369 182° South 218 251 6,000  Level Houston Center
08:33PM 29.6117 -95.2367 179° South 216 249 6,000  Level Houston Center
08:34PM 29.5675 -95.2392 183° South 217 250 6,000 -420 Level Houston Center
08:34PM 29.5522 -95.2511 214° Southwest 215 247 5,600 -1,200 Descending Houston Center
08:35PM 29.5200 -95.2847 222° Southwest 224 258 4,800 -900 Descending Houston Center
08:35PM 29.5061 -95.3000 224° Southwest 221 254 4,700 -660 Descending Houston Center
08:36PM 29.4681 -95.3428 224° Southwest 185 213 4,000 -840 Descending Houston Center
08:37PM 29.4589 -95.3778 253° West 201 231 3,200 -960 Descending Houston Center
08:38PM 29.4878 -95.4239 306° West 182 209 2,300 -600 Descending Houston Center
08:39PM 29.5397 -95.3894 30° Northeast 167 192 2,000 -180 Descending Houston Center
08:40PM 29.5656 -95.3686 35° Northeast 165 190 2,000 -480 Level Houston Center
08:41PM 29.5997 -95.3294 45° Northeast 152 175 1,100 -780 Descending Houston Center
08:42PM 29.6278 -95.2972 45° Northeast 127 146 400 -660 Descending Houston Center